Spielberg, Austria
Current Conditions -  °F | °C
As of 4:50 PM on Wednesday 26 Nov 2014 (Local Time) from LOXT Reporting Station
Broken Clouds Broken Clouds  
Wind Chill: 31°   Ceiling: 1900
Heat Index: 39°   Visibility: 6mi
Dew Point: 34°   Wind: 15mph
Humidity: 81%   Direction: 90°E
Pressure: 30.15"   Gusts: NA
Location:  48.5°N, 15.87°E
Report Text: LOXT 261550Z 09013KT 060V120 10KM BKN019SC 04/01 Q1021 RMK BKN
Loading
Personal Weather Stations






























Interactive Weather Map New forecast layout! Learn more

10-Day Weather Forecast

Advertisements
Track Severe Weather on mobile